sensor_id;sensor_type;location;lat;lon;timestamp;P1;durP1;ratioP1;P2;durP2;ratioP2
52942;SDS011;38809;53.300;6.614;2023-01-01T00:00:09;29.50;;;19.20;;
52942;SDS011;38809;53.300;6.614;2023-01-01T00:02:36;27.77;;;14.35;;
52942;SDS011;38809;53.300;6.614;2023-01-01T00:05:02;84.65;;;49.70;;
52942;SDS011;38809;53.300;6.614;2023-01-01T00:09:54;20.48;;;12.43;;
52942;SDS011;38809;53.300;6.614;2023-01-01T00:12:38;20.75;;;14.10;;
52942;SDS011;38809;53.300;6.614;2023-01-01T00:15:04;22.60;;;14.30;;
52942;SDS011;38809;53.300;6.614;2023-01-01T00:17:30;22.75;;;11.35;;
52942;SDS011;38809;53.300;6.614;2023-01-01T00:19:56;23.40;;;12.20;;
52942;SDS011;38809;53.300;6.614;2023-01-01T00:22:21;21.83;;;12.63;;
52942;SDS011;38809;53.300;6.614;2023-01-01T00:24:47;22.48;;;13.50;;
52942;SDS011;38809;53.300;6.614;2023-01-01T00:27:12;31.95;;;20.33;;
52942;SDS011;38809;53.300;6.614;2023-01-01T00:29:38;27.17;;;15.93;;
52942;SDS011;38809;53.300;6.614;2023-01-01T00:32:04;24.60;;;14.60;;
52942;SDS011;38809;53.300;6.614;2023-01-01T00:34:30;22.75;;;11.73;;
52942;SDS011;38809;53.300;6.614;2023-01-01T00:36:56;16.02;;;10.15;;
52942;SDS011;38809;53.300;6.614;2023-01-01T00:39:21;18.73;;;11.45;;
52942;SDS011;38809;53.300;6.614;2023-01-01T00:41:47;13.95;;;8.38;;
52942;SDS011;38809;53.300;6.614;2023-01-01T00:44:13;15.13;;;8.63;;
52942;SDS011;38809;53.300;6.614;2023-01-01T00:46:39;16.75;;;8.27;;
52942;SDS011;38809;53.300;6.614;2023-01-01T00:49:04;18.92;;;9.65;;
52942;SDS011;38809;53.300;6.614;2023-01-01T00:51:30;19.55;;;10.13;;
52942;SDS011;38809;53.300;6.614;2023-01-01T00:53:56;19.70;;;9.85;;
52942;SDS011;38809;53.300;6.614;2023-01-01T00:56:21;20.13;;;10.32;;
52942;SDS011;38809;53.300;6.614;2023-01-01T00:58:47;18.33;;;9.57;;
52942;SDS011;38809;53.300;6.614;2023-01-01T01:01:13;18.92;;;11.30;;
52942;SDS011;38809;53.300;6.614;2023-01-01T01:03:39;18.27;;;11.45;;
52942;SDS011;38809;53.300;6.614;2023-01-01T01:08:34;20.45;;;14.82;;
52942;SDS011;38809;53.300;6.614;2023-01-01T01:13:30;25.63;;;16.92;;
52942;SDS011;38809;53.300;6.614;2023-01-01T01:15:56;26.15;;;18.52;;
52942;SDS011;38809;53.300;6.614;2023-01-01T01:18:22;24.70;;;18.38;;
52942;SDS011;38809;53.300;6.614;2023-01-01T01:20:49;28.15;;;19.13;;
52942;SDS011;38809;53.300;6.614;2023-01-01T01:23:15;26.40;;;19.90;;
52942;SDS011;38809;53.300;6.614;2023-01-01T01:25:41;31.90;;;20.85;;
52942;SDS011;38809;53.300;6.614;2023-01-01T01:28:07;33.53;;;22.10;;
52942;SDS011;38809;53.300;6.614;2023-01-01T01:30:33;29.92;;;21.33;;
52942;SDS011;38809;53.300;6.614;2023-01-01T01:32:58;29.83;;;21.40;;
52942;SDS011;38809;53.300;6.614;2023-01-01T01:35:24;31.02;;;21.90;;
52942;SDS011;38809;53.300;6.614;2023-01-01T01:37:50;34.90;;;23.17;;
52942;SDS011;38809;53.300;6.614;2023-01-01T01:40:15;33.70;;;23.70;;
52942;SDS011;38809;53.300;6.614;2023-01-01T01:42:46;32.85;;;24.38;;
52942;SDS011;38809;53.300;6.614;2023-01-01T01:45:13;40.83;;;27.42;;
52942;SDS011;38809;53.300;6.614;2023-01-01T01:47:47;37.92;;;28.08;;
52942;SDS011;38809;53.300;6.614;2023-01-01T01:52:54;40.20;;;29.63;;
52942;SDS011;38809;53.300;6.614;2023-01-01T01:55:22;42.35;;;31.02;;
52942;SDS011;38809;53.300;6.614;2023-01-01T01:57:50;39.50;;;28.58;;
52942;SDS011;38809;53.300;6.614;2023-01-01T02:00:16;44.47;;;29.73;;
52942;SDS011;38809;53.300;6.614;2023-01-01T02:05:19;38.92;;;28.95;;
52942;SDS011;38809;53.300;6.614;2023-01-01T02:07:47;40.92;;;29.00;;
52942;SDS011;38809;53.300;6.614;2023-01-01T02:10:13;45.33;;;31.67;;
52942;SDS011;38809;53.300;6.614;2023-01-01T02:12:39;42.88;;;30.38;;
52942;SDS011;38809;53.300;6.614;2023-01-01T02:15:05;44.90;;;29.67;;
52942;SDS011;38809;53.300;6.614;2023-01-01T02:20:18;43.13;;;30.33;;
52942;SDS011;38809;53.300;6.614;2023-01-01T02:31:08;41.38;;;30.50;;
52942;SDS011;38809;53.300;6.614;2023-01-01T02:33:38;41.60;;;32.38;;
52942;SDS011;38809;53.300;6.614;2023-01-01T02:36:06;43.33;;;31.95;;
52942;SDS011;38809;53.300;6.614;2023-01-01T02:38:42;42.03;;;31.30;;
52942;SDS011;38809;53.300;6.614;2023-01-01T02:41:11;43.10;;;31.67;;
52942;SDS011;38809;53.300;6.614;2023-01-01T02:43:43;43.05;;;30.30;;
52942;SDS011;38809;53.300;6.614;2023-01-01T02:46:10;45.80;;;33.63;;
52942;SDS011;38809;53.300;6.614;2023-01-01T02:51:10;48.80;;;34.83;;
52942;SDS011;38809;53.300;6.614;2023-01-01T02:53:38;44.47;;;32.55;;
52942;SDS011;38809;53.300;6.614;2023-01-01T02:59:10;53.53;;;34.28;;
52942;SDS011;38809;53.300;6.614;2023-01-01T03:02:11;41.75;;;30.15;;
52942;SDS011;38809;53.300;6.614;2023-01-01T03:10:18;42.53;;;32.30;;
52942;SDS011;38809;53.300;6.614;2023-01-01T03:24:10;42.67;;;27.55;;
52942;SDS011;38809;53.300;6.614;2023-01-01T03:26:40;34.03;;;25.30;;
52942;SDS011;38809;53.300;6.614;2023-01-01T03:29:07;32.33;;;22.60;;
52942;SDS011;38809;53.300;6.614;2023-01-01T03:31:36;32.42;;;22.25;;
52942;SDS011;38809;53.300;6.614;2023-01-01T03:34:09;29.23;;;19.60;;
52942;SDS011;38809;53.300;6.614;2023-01-01T03:36:46;26.73;;;16.33;;
52942;SDS011;38809;53.300;6.614;2023-01-01T03:41:55;20.20;;;13.20;;
52942;SDS011;38809;53.300;6.614;2023-01-01T03:44:35;18.75;;;11.77;;
52942;SDS011;38809;53.300;6.614;2023-01-01T03:47:08;20.83;;;9.90;;
52942;SDS011;38809;53.300;6.614;2023-01-01T03:49:34;13.02;;;8.05;;
52942;SDS011;38809;53.300;6.614;2023-01-01T03:57:32;13.57;;;7.57;;
52942;SDS011;38809;53.300;6.614;2023-01-01T04:00:10;12.65;;;6.68;;
52942;SDS011;38809;53.300;6.614;2023-01-01T04:02:51;12.40;;;6.25;;
52942;SDS011;38809;53.300;6.614;2023-01-01T04:05:38;12.45;;;6.70;;
52942;SDS011;38809;53.300;6.614;2023-01-01T04:08:05;11.65;;;6.82;;
52942;SDS011;38809;53.300;6.614;2023-01-01T04:10:32;13.85;;;6.53;;
52942;SDS011;38809;53.300;6.614;2023-01-01T04:13:01;10.57;;;5.93;;
52942;SDS011;38809;53.300;6.614;2023-01-01T04:15:30;11.77;;;5.88;;
52942;SDS011;38809;53.300;6.614;2023-01-01T04:17:57;11.52;;;6.15;;
52942;SDS011;38809;53.300;6.614;2023-01-01T04:20:23;13.98;;;5.60;;
52942;SDS011;38809;53.300;6.614;2023-01-01T04:22:50;9.55;;;5.07;;
52942;SDS011;38809;53.300;6.614;2023-01-01T04:25:15;8.57;;;4.65;;
52942;SDS011;38809;53.300;6.614;2023-01-01T04:27:41;10.27;;;4.57;;
52942;SDS011;38809;53.300;6.614;2023-01-01T04:30:09;10.32;;;3.70;;
52942;SDS011;38809;53.300;6.614;2023-01-01T04:32:37;9.68;;;3.95;;
52942;SDS011;38809;53.300;6.614;2023-01-01T04:35:03;7.75;;;3.10;;
52942;SDS011;38809;53.300;6.614;2023-01-01T04:37:29;9.23;;;2.80;;
52942;SDS011;38809;53.300;6.614;2023-01-01T04:39:55;4.97;;;2.80;;
52942;SDS011;38809;53.300;6.614;2023-01-01T04:42:21;6.03;;;2.55;;
52942;SDS011;38809;53.300;6.614;2023-01-01T04:44:47;5.05;;;2.05;;
52942;SDS011;38809;53.300;6.614;2023-01-01T04:47:12;5.70;;;2.10;;
52942;SDS011;38809;53.300;6.614;2023-01-01T04:49:38;9.80;;;2.20;;
52942;SDS011;38809;53.300;6.614;2023-01-01T04:52:04;8.07;;;2.23;;
52942;SDS011;38809;53.300;6.614;2023-01-01T04:54:29;7.25;;;2.45;;
52942;SDS011;38809;53.300;6.614;2023-01-01T04:56:55;7.75;;;2.10;;
52942;SDS011;38809;53.300;6.614;2023-01-01T04:59:21;9.00;;;2.63;;
52942;SDS011;38809;53.300;6.614;2023-01-01T05:01:46;10.40;;;2.83;;
52942;SDS011;38809;53.300;6.614;2023-01-01T05:04:13;10.25;;;3.40;;
52942;SDS011;38809;53.300;6.614;2023-01-01T05:06:40;10.45;;;3.10;;
52942;SDS011;38809;53.300;6.614;2023-01-01T05:09:07;11.10;;;3.08;;
52942;SDS011;38809;53.300;6.614;2023-01-01T05:11:34;8.80;;;3.30;;
52942;SDS011;38809;53.300;6.614;2023-01-01T05:14:00;12.40;;;3.25;;
52942;SDS011;38809;53.300;6.614;2023-01-01T05:16:27;10.90;;;3.28;;
52942;SDS011;38809;53.300;6.614;2023-01-01T05:18:55;14.23;;;3.40;;
52942;SDS011;38809;53.300;6.614;2023-01-01T05:21:22;10.50;;;3.60;;
52942;SDS011;38809;53.300;6.614;2023-01-01T05:23:53;10.25;;;3.05;;
52942;SDS011;38809;53.300;6.614;2023-01-01T05:26:21;11.32;;;3.60;;
52942;SDS011;38809;53.300;6.614;2023-01-01T05:28:47;10.90;;;3.53;;
52942;SDS011;38809;53.300;6.614;2023-01-01T05:31:15;12.43;;;3.45;;
52942;SDS011;38809;53.300;6.614;2023-01-01T05:33:42;12.88;;;3.00;;
52942;SDS011;38809;53.300;6.614;2023-01-01T05:36:09;6.38;;;2.50;;
52942;SDS011;38809;53.300;6.614;2023-01-01T05:38:39;8.15;;;3.15;;
52942;SDS011;38809;53.300;6.614;2023-01-01T05:41:05;7.60;;;2.33;;
52942;SDS011;38809;53.300;6.614;2023-01-01T05:43:32;10.50;;;3.00;;
52942;SDS011;38809;53.300;6.614;2023-01-01T05:46:05;8.20;;;2.58;;
52942;SDS011;38809;53.300;6.614;2023-01-01T05:48:32;7.38;;;2.08;;
52942;SDS011;38809;53.300;6.614;2023-01-01T05:51:03;8.23;;;2.28;;
52942;SDS011;38809;53.300;6.614;2023-01-01T05:53:31;6.93;;;2.22;;
52942;SDS011;38809;53.300;6.614;2023-01-01T05:55:57;4.95;;;1.80;;
52942;SDS011;38809;53.300;6.614;2023-01-01T05:58:23;5.78;;;1.83;;
52942;SDS011;38809;53.300;6.614;2023-01-01T06:00:49;5.72;;;1.63;;
52942;SDS011;38809;53.300;6.614;2023-01-01T06:03:15;5.72;;;1.77;;
52942;SDS011;38809;53.300;6.614;2023-01-01T06:05:41;8.23;;;1.67;;
52942;SDS011;38809;53.300;6.614;2023-01-01T06:08:07;4.90;;;1.75;;
52942;SDS011;38809;53.300;6.614;2023-01-01T06:10:32;6.45;;;2.00;;
52942;SDS011;38809;53.300;6.614;2023-01-01T06:12:58;7.65;;;2.05;;
52942;SDS011;38809;53.300;6.614;2023-01-01T06:15:24;7.82;;;2.10;;
52942;SDS011;38809;53.300;6.614;2023-01-01T06:17:50;4.45;;;1.80;;
52942;SDS011;38809;53.300;6.614;2023-01-01T06:20:16;9.38;;;2.00;;
52942;SDS011;38809;53.300;6.614;2023-01-01T06:22:42;7.03;;;1.75;;
52942;SDS011;38809;53.300;6.614;2023-01-01T06:25:08;5.43;;;1.70;;
52942;SDS011;38809;53.300;6.614;2023-01-01T06:27:34;7.43;;;1.80;;
52942;SDS011;38809;53.300;6.614;2023-01-01T06:30:01;7.50;;;1.90;;
52942;SDS011;38809;53.300;6.614;2023-01-01T06:32:30;7.35;;;1.85;;
52942;SDS011;38809;53.300;6.614;2023-01-01T06:34:56;9.40;;;2.35;;
52942;SDS011;38809;53.300;6.614;2023-01-01T06:37:22;6.97;;;1.77;;
52942;SDS011;38809;53.300;6.614;2023-01-01T06:39:48;6.72;;;1.45;;
52942;SDS011;38809;53.300;6.614;2023-01-01T06:42:13;5.38;;;1.70;;
52942;SDS011;38809;53.300;6.614;2023-01-01T06:44:39;4.82;;;1.42;;
52942;SDS011;38809;53.300;6.614;2023-01-01T06:47:05;8.68;;;1.52;;
52942;SDS011;38809;53.300;6.614;2023-01-01T06:49:31;6.32;;;1.75;;
52942;SDS011;38809;53.300;6.614;2023-01-01T06:51:57;8.98;;;2.03;;
52942;SDS011;38809;53.300;6.614;2023-01-01T06:54:23;7.05;;;1.98;;
52942;SDS011;38809;53.300;6.614;2023-01-01T06:56:49;6.00;;;1.43;;
52942;SDS011;38809;53.300;6.614;2023-01-01T06:59:15;5.57;;;1.20;;
52942;SDS011;38809;53.300;6.614;2023-01-01T07:01:41;7.25;;;1.58;;
52942;SDS011;38809;53.300;6.614;2023-01-01T07:04:10;5.47;;;1.40;;
52942;SDS011;38809;53.300;6.614;2023-01-01T07:06:38;6.50;;;1.48;;
52942;SDS011;38809;53.300;6.614;2023-01-01T07:09:04;6.72;;;1.88;;
52942;SDS011;38809;53.300;6.614;2023-01-01T07:11:31;10.63;;;2.50;;
52942;SDS011;38809;53.300;6.614;2023-01-01T07:16:23;8.57;;;1.98;;
52942;SDS011;38809;53.300;6.614;2023-01-01T07:18:49;8.55;;;1.83;;
52942;SDS011;38809;53.300;6.614;2023-01-01T07:21:24;6.97;;;1.40;;
52942;SDS011;38809;53.300;6.614;2023-01-01T07:23:58;11.05;;;2.40;;
52942;SDS011;38809;53.300;6.614;2023-01-01T07:26:25;8.15;;;2.17;;
52942;SDS011;38809;53.300;6.614;2023-01-01T07:28:52;9.10;;;2.17;;
52942;SDS011;38809;53.300;6.614;2023-01-01T07:31:18;8.65;;;1.70;;
52942;SDS011;38809;53.300;6.614;2023-01-01T07:33:43;10.07;;;2.22;;
52942;SDS011;38809;53.300;6.614;2023-01-01T07:36:09;11.37;;;1.80;;
52942;SDS011;38809;53.300;6.614;2023-01-01T07:38:35;11.23;;;2.28;;
52942;SDS011;38809;53.300;6.614;2023-01-01T07:41:01;13.00;;;2.67;;
52942;SDS011;38809;53.300;6.614;2023-01-01T07:43:26;11.00;;;1.85;;
52942;SDS011;38809;53.300;6.614;2023-01-01T07:45:52;12.60;;;2.53;;
52942;SDS011;38809;53.300;6.614;2023-01-01T07:48:18;5.72;;;1.75;;
52942;SDS011;38809;53.300;6.614;2023-01-01T07:50:44;10.70;;;2.30;;
52942;SDS011;38809;53.300;6.614;2023-01-01T07:53:09;11.97;;;2.17;;
52942;SDS011;38809;53.300;6.614;2023-01-01T07:55:35;14.00;;;2.28;;
52942;SDS011;38809;53.300;6.614;2023-01-01T07:58:01;9.23;;;2.47;;
52942;SDS011;38809;53.300;6.614;2023-01-01T08:00:27;12.38;;;2.15;;
52942;SDS011;38809;53.300;6.614;2023-01-01T08:02:53;8.63;;;2.08;;
52942;SDS011;38809;53.300;6.614;2023-01-01T08:05:19;17.67;;;2.53;;
52942;SDS011;38809;53.300;6.614;2023-01-01T08:07:48;9.88;;;1.98;;
52942;SDS011;38809;53.300;6.614;2023-01-01T08:10:15;8.07;;;1.85;;
52942;SDS011;38809;53.300;6.614;2023-01-01T08:12:42;10.02;;;2.15;;
52942;SDS011;38809;53.300;6.614;2023-01-01T08:15:08;9.27;;;1.83;;
52942;SDS011;38809;53.300;6.614;2023-01-01T08:17:35;14.05;;;2.50;;
52942;SDS011;38809;53.300;6.614;2023-01-01T08:20:01;10.63;;;2.30;;
52942;SDS011;38809;53.300;6.614;2023-01-01T08:22:26;9.13;;;2.38;;
52942;SDS011;38809;53.300;6.614;2023-01-01T08:24:52;12.13;;;2.27;;
52942;SDS011;38809;53.300;6.614;2023-01-01T08:27:18;9.13;;;2.73;;
52942;SDS011;38809;53.300;6.614;2023-01-01T08:29:43;13.45;;;2.78;;
52942;SDS011;38809;53.300;6.614;2023-01-01T08:32:12;11.50;;;2.17;;
52942;SDS011;38809;53.300;6.614;2023-01-01T08:34:38;14.45;;;2.78;;
52942;SDS011;38809;53.300;6.614;2023-01-01T08:37:04;13.93;;;2.50;;
52942;SDS011;38809;53.300;6.614;2023-01-01T08:39:30;10.25;;;2.42;;
52942;SDS011;38809;53.300;6.614;2023-01-01T08:41:56;12.68;;;2.67;;
52942;SDS011;38809;53.300;6.614;2023-01-01T08:44:21;12.50;;;2.45;;
52942;SDS011;38809;53.300;6.614;2023-01-01T08:46:47;9.65;;;2.20;;
52942;SDS011;38809;53.300;6.614;2023-01-01T08:49:13;12.37;;;2.30;;
52942;SDS011;38809;53.300;6.614;2023-01-01T08:51:38;15.15;;;2.38;;
52942;SDS011;38809;53.300;6.614;2023-01-01T08:54:05;16.67;;;2.50;;
52942;SDS011;38809;53.300;6.614;2023-01-01T08:56:30;8.45;;;2.13;;
52942;SDS011;38809;53.300;6.614;2023-01-01T08:58:56;15.30;;;2.90;;
52942;SDS011;38809;53.300;6.614;2023-01-01T09:01:22;10.57;;;2.40;;
52942;SDS011;38809;53.300;6.614;2023-01-01T09:03:50;12.00;;;2.17;;
52942;SDS011;38809;53.300;6.614;2023-01-01T09:06:16;16.83;;;3.00;;
52942;SDS011;38809;53.300;6.614;2023-01-01T09:08:41;11.85;;;2.60;;
52942;SDS011;38809;53.300;6.614;2023-01-01T09:11:14;14.32;;;2.50;;
52942;SDS011;38809;53.300;6.614;2023-01-01T09:13:48;13.60;;;2.50;;
52942;SDS011;38809;53.300;6.614;2023-01-01T09:16:14;13.50;;;2.72;;
52942;SDS011;38809;53.300;6.614;2023-01-01T09:18:40;11.00;;;2.78;;
52942;SDS011;38809;53.300;6.614;2023-01-01T09:21:05;15.67;;;2.90;;
52942;SDS011;38809;53.300;6.614;2023-01-01T09:23:31;9.85;;;2.60;;
52942;SDS011;38809;53.300;6.614;2023-01-01T09:26:07;11.05;;;2.35;;
52942;SDS011;38809;53.300;6.614;2023-01-01T09:28:34;17.60;;;2.53;;
52942;SDS011;38809;53.300;6.614;2023-01-01T09:31:01;11.23;;;2.72;;
52942;SDS011;38809;53.300;6.614;2023-01-01T09:33:29;19.42;;;2.70;;
52942;SDS011;38809;53.300;6.614;2023-01-01T09:35:58;14.95;;;2.67;;
52942;SDS011;38809;53.300;6.614;2023-01-01T09:38:51;15.85;;;2.50;;
52942;SDS011;38809;53.300;6.614;2023-01-01T09:46:27;15.63;;;2.83;;
52942;SDS011;38809;53.300;6.614;2023-01-01T09:48:54;16.42;;;3.97;;
52942;SDS011;38809;53.300;6.614;2023-01-01T09:51:24;14.48;;;2.45;;
52942;SDS011;38809;53.300;6.614;2023-01-01T09:53:54;14.68;;;2.92;;
52942;SDS011;38809;53.300;6.614;2023-01-01T09:56:34;11.32;;;2.53;;
52942;SDS011;38809;53.300;6.614;2023-01-01T09:59:03;11.18;;;2.58;;
52942;SDS011;38809;53.300;6.614;2023-01-01T10:01:35;16.00;;;2.60;;
52942;SDS011;38809;53.300;6.614;2023-01-01T10:07:08;12.48;;;3.00;;
52942;SDS011;38809;53.300;6.614;2023-01-01T10:09:41;12.52;;;2.60;;
52942;SDS011;38809;53.300;6.614;2023-01-01T10:15:30;16.30;;;2.88;;
52942;SDS011;38809;53.300;6.614;2023-01-01T10:17:59;10.23;;;2.00;;
52942;SDS011;38809;53.300;6.614;2023-01-01T10:20:31;11.63;;;2.50;;
52942;SDS011;38809;53.300;6.614;2023-01-01T10:23:07;13.80;;;2.92;;
52942;SDS011;38809;53.300;6.614;2023-01-01T10:25:48;15.40;;;2.70;;
52942;SDS011;38809;53.300;6.614;2023-01-01T10:28:18;11.20;;;3.03;;
52942;SDS011;38809;53.300;6.614;2023-01-01T10:30:52;13.82;;;2.85;;
52942;SDS011;38809;53.300;6.614;2023-01-01T10:33:38;10.90;;;2.40;;
52942;SDS011;38809;53.300;6.614;2023-01-01T10:36:04;11.52;;;2.38;;
52942;SDS011;38809;53.300;6.614;2023-01-01T10:38:31;11.00;;;2.80;;
52942;SDS011;38809;53.300;6.614;2023-01-01T10:41:07;13.93;;;2.95;;
52942;SDS011;38809;53.300;6.614;2023-01-01T10:43:34;15.15;;;3.05;;
52942;SDS011;38809;53.300;6.614;2023-01-01T10:46:01;16.42;;;3.00;;
52942;SDS011;38809;53.300;6.614;2023-01-01T10:48:29;11.13;;;2.75;;
52942;SDS011;38809;53.300;6.614;2023-01-01T10:51:00;15.38;;;2.78;;
52942;SDS011;38809;53.300;6.614;2023-01-01T10:53:40;11.07;;;2.17;;
52942;SDS011;38809;53.300;6.614;2023-01-01T10:56:20;14.10;;;2.50;;
52942;SDS011;38809;53.300;6.614;2023-01-01T10:58:51;12.73;;;2.30;;
52942;SDS011;38809;53.300;6.614;2023-01-01T11:01:25;13.25;;;1.77;;
52942;SDS011;38809;53.300;6.614;2023-01-01T11:04:00;9.38;;;1.83;;
52942;SDS011;38809;53.300;6.614;2023-01-01T11:06:33;12.10;;;1.85;;
52942;SDS011;38809;53.300;6.614;2023-01-01T11:09:25;12.93;;;2.25;;
52942;SDS011;38809;53.300;6.614;2023-01-01T11:12:15;10.90;;;2.45;;
52942;SDS011;38809;53.300;6.614;2023-01-01T11:14:48;13.10;;;2.15;;
52942;SDS011;38809;53.300;6.614;2023-01-01T11:17:35;13.32;;;2.88;;
52942;SDS011;38809;53.300;6.614;2023-01-01T11:20:02;9.63;;;2.00;;
52942;SDS011;38809;53.300;6.614;2023-01-01T11:25:30;8.75;;;2.35;;
52942;SDS011;38809;53.300;6.614;2023-01-01T11:28:32;16.55;;;2.63;;
52942;SDS011;38809;53.300;6.614;2023-01-01T11:31:23;8.15;;;1.88;;
52942;SDS011;38809;53.300;6.614;2023-01-01T11:33:49;7.75;;;1.58;;
52942;SDS011;38809;53.300;6.614;2023-01-01T11:36:24;8.45;;;1.60;;
52942;SDS011;38809;53.300;6.614;2023-01-01T11:41:47;8.32;;;1.88;;
52942;SDS011;38809;53.300;6.614;2023-01-01T11:44:34;9.18;;;1.67;;
52942;SDS011;38809;53.300;6.614;2023-01-01T11:47:05;7.97;;;1.77;;
52942;SDS011;38809;53.300;6.614;2023-01-01T11:49:39;13.95;;;2.42;;
52942;SDS011;38809;53.300;6.614;2023-01-01T11:52:25;10.80;;;2.13;;
52942;SDS011;38809;53.300;6.614;2023-01-01T11:54:52;9.93;;;1.90;;
52942;SDS011;38809;53.300;6.614;2023-01-01T11:57:25;9.50;;;1.83;;
52942;SDS011;38809;53.300;6.614;2023-01-01T11:59:55;11.75;;;2.47;;
52942;SDS011;38809;53.300;6.614;2023-01-01T12:02:30;12.77;;;2.35;;
52942;SDS011;38809;53.300;6.614;2023-01-01T12:05:05;11.38;;;1.98;;
52942;SDS011;38809;53.300;6.614;2023-01-01T12:07:43;7.72;;;1.90;;
52942;SDS011;38809;53.300;6.614;2023-01-01T12:10:16;8.77;;;1.42;;
52942;SDS011;38809;53.300;6.614;2023-01-01T12:13:02;10.35;;;1.88;;
52942;SDS011;38809;53.300;6.614;2023-01-01T12:15:57;11.83;;;2.30;;
52942;SDS011;38809;53.300;6.614;2023-01-01T12:18:36;8.07;;;2.58;;
52942;SDS011;38809;53.300;6.614;2023-01-01T12:21:04;11.27;;;1.98;;
52942;SDS011;38809;53.300;6.614;2023-01-01T12:23:32;11.80;;;1.95;;
52942;SDS011;38809;53.300;6.614;2023-01-01T12:31:55;10.85;;;2.28;;
52942;SDS011;38809;53.300;6.614;2023-01-01T12:34:48;12.02;;;1.83;;
52942;SDS011;38809;53.300;6.614;2023-01-01T12:43:00;8.38;;;2.22;;
52942;SDS011;38809;53.300;6.614;2023-01-01T12:54:26;11.85;;;2.40;;
52942;SDS011;38809;53.300;6.614;2023-01-01T12:56:31;10.57;;;2.45;;
52942;SDS011;38809;53.300;6.614;2023-01-01T12:59:08;9.15;;;2.72;;
52942;SDS011;38809;53.300;6.614;2023-01-01T13:01:37;8.90;;;1.95;;
52942;SDS011;38809;53.300;6.614;2023-01-01T13:04:05;10.65;;;2.28;;
52942;SDS011;38809;53.300;6.614;2023-01-01T13:11:43;9.15;;;2.05;;
52942;SDS011;38809;53.300;6.614;2023-01-01T13:14:12;9.70;;;2.03;;
52942;SDS011;38809;53.300;6.614;2023-01-01T13:16:38;10.63;;;1.88;;
52942;SDS011;38809;53.300;6.614;2023-01-01T13:19:10;10.57;;;2.50;;
52942;SDS011;38809;53.300;6.614;2023-01-01T13:21:49;21.50;;;11.77;;
52942;SDS011;38809;53.300;6.614;2023-01-01T13:24:19;10.02;;;3.10;;
52942;SDS011;38809;53.300;6.614;2023-01-01T13:26:46;9.88;;;2.45;;
52942;SDS011;38809;53.300;6.614;2023-01-01T13:39:50;11.50;;;2.30;;
52942;SDS011;38809;53.300;6.614;2023-01-01T13:45:50;9.10;;;2.38;;
52942;SDS011;38809;53.300;6.614;2023-01-01T13:56:46;9.45;;;2.25;;
52942;SDS011;38809;53.300;6.614;2023-01-01T13:59:34;14.38;;;2.60;;
52942;SDS011;38809;53.300;6.614;2023-01-01T14:02:21;6.90;;;1.95;;
52942;SDS011;38809;53.300;6.614;2023-01-01T14:04:58;9.52;;;2.10;;
52942;SDS011;38809;53.300;6.614;2023-01-01T14:07:40;12.60;;;2.22;;
52942;SDS011;38809;53.300;6.614;2023-01-01T14:12:51;9.13;;;2.22;;
52942;SDS011;38809;53.300;6.614;2023-01-01T14:17:49;8.63;;;1.67;;
52942;SDS011;38809;53.300;6.614;2023-01-01T14:20:17;9.50;;;2.30;;
52942;SDS011;38809;53.300;6.614;2023-01-01T14:22:46;10.38;;;2.20;;
52942;SDS011;38809;53.300;6.614;2023-01-01T14:25:15;8.07;;;1.90;;
52942;SDS011;38809;53.300;6.614;2023-01-01T14:27:50;10.38;;;2.50;;
52942;SDS011;38809;53.300;6.614;2023-01-01T14:30:18;9.50;;;1.85;;
52942;SDS011;38809;53.300;6.614;2023-01-01T14:32:43;8.32;;;2.28;;
52942;SDS011;38809;53.300;6.614;2023-01-01T14:35:11;9.23;;;2.08;;
52942;SDS011;38809;53.300;6.614;2023-01-01T14:37:41;10.20;;;2.10;;
52942;SDS011;38809;53.300;6.614;2023-01-01T14:40:17;8.68;;;2.03;;
52942;SDS011;38809;53.300;6.614;2023-01-01T14:42:51;8.60;;;1.67;;
52942;SDS011;38809;53.300;6.614;2023-01-01T14:45:22;13.80;;;2.60;;
52942;SDS011;38809;53.300;6.614;2023-01-01T14:47:49;8.95;;;2.40;;
52942;SDS011;38809;53.300;6.614;2023-01-01T14:50:28;9.68;;;2.38;;
52942;SDS011;38809;53.300;6.614;2023-01-01T14:55:32;8.93;;;1.98;;
52942;SDS011;38809;53.300;6.614;2023-01-01T14:58:05;8.48;;;2.15;;
52942;SDS011;38809;53.300;6.614;2023-01-01T15:00:37;6.22;;;2.00;;
52942;SDS011;38809;53.300;6.614;2023-01-01T15:03:04;7.72;;;1.95;;
52942;SDS011;38809;53.300;6.614;2023-01-01T15:05:33;9.75;;;1.98;;
52942;SDS011;38809;53.300;6.614;2023-01-01T15:08:00;6.90;;;1.95;;
52942;SDS011;38809;53.300;6.614;2023-01-01T15:10:27;10.18;;;1.90;;
52942;SDS011;38809;53.300;6.614;2023-01-01T15:12:55;8.63;;;2.00;;
52942;SDS011;38809;53.300;6.614;2023-01-01T15:15:41;9.27;;;2.03;;
52942;SDS011;38809;53.300;6.614;2023-01-01T15:21:03;9.02;;;2.20;;
52942;SDS011;38809;53.300;6.614;2023-01-01T15:23:35;9.07;;;2.17;;
52942;SDS011;38809;53.300;6.614;2023-01-01T15:26:05;12.02;;;2.75;;
52942;SDS011;38809;53.300;6.614;2023-01-01T15:28:33;9.20;;;2.33;;
52942;SDS011;38809;53.300;6.614;2023-01-01T15:31:00;10.43;;;2.20;;
52942;SDS011;38809;53.300;6.614;2023-01-01T15:33:26;8.85;;;2.28;;
52942;SDS011;38809;53.300;6.614;2023-01-01T15:35:52;12.15;;;2.63;;
52942;SDS011;38809;53.300;6.614;2023-01-01T15:38:28;9.82;;;2.33;;
52942;SDS011;38809;53.300;6.614;2023-01-01T15:40:58;10.38;;;2.53;;
52942;SDS011;38809;53.300;6.614;2023-01-01T15:43:28;9.30;;;2.20;;
52942;SDS011;38809;53.300;6.614;2023-01-01T15:48:35;8.43;;;2.28;;
52942;SDS011;38809;53.300;6.614;2023-01-01T15:51:13;12.77;;;2.90;;
52942;SDS011;38809;53.300;6.614;2023-01-01T15:53:45;10.38;;;2.78;;
52942;SDS011;38809;53.300;6.614;2023-01-01T15:56:14;12.20;;;4.43;;
52942;SDS011;38809;53.300;6.614;2023-01-01T16:01:10;6.20;;;2.25;;
52942;SDS011;38809;53.300;6.614;2023-01-01T16:03:38;10.98;;;2.35;;
52942;SDS011;38809;53.300;6.614;2023-01-01T16:06:06;14.05;;;3.25;;
52942;SDS011;38809;53.300;6.614;2023-01-01T16:08:38;12.68;;;2.47;;
52942;SDS011;38809;53.300;6.614;2023-01-01T16:11:04;16.77;;;3.90;;
52942;SDS011;38809;53.300;6.614;2023-01-01T16:13:30;9.00;;;2.63;;
52942;SDS011;38809;53.300;6.614;2023-01-01T16:15:56;9.77;;;2.73;;
52942;SDS011;38809;53.300;6.614;2023-01-01T16:18:27;10.05;;;3.70;;
52942;SDS011;38809;53.300;6.614;2023-01-01T16:20:56;11.55;;;3.50;;
52942;SDS011;38809;53.300;6.614;2023-01-01T16:23:21;14.52;;;3.35;;
52942;SDS011;38809;53.300;6.614;2023-01-01T16:25:47;12.52;;;3.22;;
52942;SDS011;38809;53.300;6.614;2023-01-01T16:28:13;12.87;;;4.20;;
52942;SDS011;38809;53.300;6.614;2023-01-01T16:30:39;13.93;;;3.63;;
52942;SDS011;38809;53.300;6.614;2023-01-01T16:33:08;15.30;;;3.78;;
52942;SDS011;38809;53.300;6.614;2023-01-01T16:35:43;13.85;;;3.63;;
52942;SDS011;38809;53.300;6.614;2023-01-01T16:38:09;16.10;;;3.25;;
52942;SDS011;38809;53.300;6.614;2023-01-01T16:40:35;16.88;;;3.67;;
52942;SDS011;38809;53.300;6.614;2023-01-01T16:43:02;8.80;;;2.42;;
52942;SDS011;38809;53.300;6.614;2023-01-01T16:45:30;11.40;;;3.38;;
52942;SDS011;38809;53.300;6.614;2023-01-01T16:47:55;14.98;;;3.20;;
52942;SDS011;38809;53.300;6.614;2023-01-01T16:50:21;14.27;;;3.08;;
52942;SDS011;38809;53.300;6.614;2023-01-01T16:52:47;14.20;;;3.92;;
52942;SDS011;38809;53.300;6.614;2023-01-01T16:55:13;15.07;;;4.00;;
52942;SDS011;38809;53.300;6.614;2023-01-01T16:57:39;13.13;;;4.38;;
52942;SDS011;38809;53.300;6.614;2023-01-01T17:00:05;13.27;;;4.57;;
52942;SDS011;38809;53.300;6.614;2023-01-01T17:02:33;14.15;;;5.13;;
52942;SDS011;38809;53.300;6.614;2023-01-01T17:04:59;11.23;;;3.67;;